Terminal Aerodrome Forecast
Issued by NWS Houston/Galveston, TX

Home | Current Version | Previous Version | Text Only | Print | Product List | Glossary On
Versions: 1 2 3 4 5 6 7 8 9 10 11 12 13 14 15 16 17 18 19 20 21 22 23 24 25 26 27 28 29 30 31 32
000
FTUS44 KHGX 310520
TAFCLL
TAF
KCLL 310520Z 3106/0106 17003KT P6SM FEW015 BKN250
     FM311500 16007KT P6SM SCT035 BKN120
      TEMPO 3118/3122 -SHRA BKN028 OVC060
     FM312200 14011KT P6SM VCTS SCT040CB BKN150 PROB30 3122/0101
      -TSRA
     FM010100 15008KT P6SM FEW100 BKN250=

USA.gov is the U.S. government's official web portal to all federal, state and local government web resources and services.